sensor_id;sensor_type;location;lat;lon;timestamp;temperature;humidity
3816;DHT22;1923;48.154;11.536;2023-11-22T00:02:24;8.30;99.90
3816;DHT22;1923;48.154;11.536;2023-11-22T00:04:56;8.40;99.90
3816;DHT22;1923;48.154;11.536;2023-11-22T00:07:25;8.30;99.90
3816;DHT22;1923;48.154;11.536;2023-11-22T00:09:55;8.20;99.90
3816;DHT22;1923;48.154;11.536;2023-11-22T00:12:24;8.20;99.90
3816;DHT22;1923;48.154;11.536;2023-11-22T00:14:53;8.20;99.90
3816;DHT22;1923;48.154;11.536;2023-11-22T00:17:22;8.20;99.90
3816;DHT22;1923;48.154;11.536;2023-11-22T00:19:51;8.10;99.90
3816;DHT22;1923;48.154;11.536;2023-11-22T00:22:19;8.20;99.90
3816;DHT22;1923;48.154;11.536;2023-11-22T00:24:48;8.20;99.90
3816;DHT22;1923;48.154;11.536;2023-11-22T00:27:17;8.30;99.90
3816;DHT22;1923;48.154;11.536;2023-11-22T00:29:45;8.30;99.90
3816;DHT22;1923;48.154;11.536;2023-11-22T00:32:13;8.30;99.90
3816;DHT22;1923;48.154;11.536;2023-11-22T00:34:43;8.30;99.90
3816;DHT22;1923;48.154;11.536;2023-11-22T00:37:11;8.30;99.90
3816;DHT22;1923;48.154;11.536;2023-11-22T00:39:39;8.30;99.90
3816;DHT22;1923;48.154;11.536;2023-11-22T00:42:08;8.30;99.90
3816;DHT22;1923;48.154;11.536;2023-11-22T00:44:36;8.30;99.90
3816;DHT22;1923;48.154;11.536;2023-11-22T00:47:05;8.20;99.90
3816;DHT22;1923;48.154;11.536;2023-11-22T00:49:33;8.30;99.90
3816;DHT22;1923;48.154;11.536;2023-11-22T00:52:03;8.40;99.90
3816;DHT22;1923;48.154;11.536;2023-11-22T00:54:31;8.40;99.90
3816;DHT22;1923;48.154;11.536;2023-11-22T00:56:59;8.40;99.90
3816;DHT22;1923;48.154;11.536;2023-11-22T00:59:28;8.40;99.90
3816;DHT22;1923;48.154;11.536;2023-11-22T01:01:56;8.50;99.90
3816;DHT22;1923;48.154;11.536;2023-11-22T01:04:24;8.50;99.90
3816;DHT22;1923;48.154;11.536;2023-11-22T01:06:52;8.40;99.90
3816;DHT22;1923;48.154;11.536;2023-11-22T01:09:21;8.50;99.90
3816;DHT22;1923;48.154;11.536;2023-11-22T01:11:49;8.40;99.90
3816;DHT22;1923;48.154;11.536;2023-11-22T01:14:17;8.20;99.90
3816;DHT22;1923;48.154;11.536;2023-11-22T01:16:46;8.20;99.90
3816;DHT22;1923;48.154;11.536;2023-11-22T01:19:14;8.20;99.90
3816;DHT22;1923;48.154;11.536;2023-11-22T01:21:42;8.20;99.90
3816;DHT22;1923;48.154;11.536;2023-11-22T01:24:10;8.20;99.90
3816;DHT22;1923;48.154;11.536;2023-11-22T01:26:40;8.20;99.90
3816;DHT22;1923;48.154;11.536;2023-11-22T01:29:08;8.20;99.90
3816;DHT22;1923;48.154;11.536;2023-11-22T01:31:38;8.30;99.90
3816;DHT22;1923;48.154;11.536;2023-11-22T01:34:09;8.30;99.90
3816;DHT22;1923;48.154;11.536;2023-11-22T01:36:42;8.30;99.90
3816;DHT22;1923;48.154;11.536;2023-11-22T01:39:11;8.30;99.90
3816;DHT22;1923;48.154;11.536;2023-11-22T01:41:44;8.20;99.90
3816;DHT22;1923;48.154;11.536;2023-11-22T01:44:12;8.20;99.90
3816;DHT22;1923;48.154;11.536;2023-11-22T01:46:40;8.10;99.90
3816;DHT22;1923;48.154;11.536;2023-11-22T01:49:09;8.10;99.90
3816;DHT22;1923;48.154;11.536;2023-11-22T01:51:38;8.10;99.90
3816;DHT22;1923;48.154;11.536;2023-11-22T01:54:08;8.10;99.90
3816;DHT22;1923;48.154;11.536;2023-11-22T01:56:37;8.00;99.90
3816;DHT22;1923;48.154;11.536;2023-11-22T01:59:07;7.90;99.90
3816;DHT22;1923;48.154;11.536;2023-11-22T02:01:35;8.00;99.90
3816;DHT22;1923;48.154;11.536;2023-11-22T02:04:04;7.90;99.90
3816;DHT22;1923;48.154;11.536;2023-11-22T02:06:33;7.90;99.90
3816;DHT22;1923;48.154;11.536;2023-11-22T02:09:02;7.70;99.90
3816;DHT22;1923;48.154;11.536;2023-11-22T02:11:30;7.30;99.90
3816;DHT22;1923;48.154;11.536;2023-11-22T02:13:59;7.00;99.90
3816;DHT22;1923;48.154;11.536;2023-11-22T02:16:28;6.80;99.90
3816;DHT22;1923;48.154;11.536;2023-11-22T02:18:58;6.70;99.90
3816;DHT22;1923;48.154;11.536;2023-11-22T02:21:26;6.40;99.90
3816;DHT22;1923;48.154;11.536;2023-11-22T02:23:55;6.20;99.90
3816;DHT22;1923;48.154;11.536;2023-11-22T02:26:23;6.10;99.90
3816;DHT22;1923;48.154;11.536;2023-11-22T02:28:51;5.90;99.90
3816;DHT22;1923;48.154;11.536;2023-11-22T02:31:20;5.80;99.90
3816;DHT22;1923;48.154;11.536;2023-11-22T02:33:48;5.70;99.90
3816;DHT22;1923;48.154;11.536;2023-11-22T02:36:16;5.80;99.90
3816;DHT22;1923;48.154;11.536;2023-11-22T02:38:44;5.80;99.90
3816;DHT22;1923;48.154;11.536;2023-11-22T02:41:14;5.80;99.90
3816;DHT22;1923;48.154;11.536;2023-11-22T02:43:42;5.70;99.90
3816;DHT22;1923;48.154;11.536;2023-11-22T02:46:10;5.60;99.90
3816;DHT22;1923;48.154;11.536;2023-11-22T02:48:39;5.60;99.90
3816;DHT22;1923;48.154;11.536;2023-11-22T02:51:07;5.40;99.90
3816;DHT22;1923;48.154;11.536;2023-11-22T02:53:35;5.30;99.90
3816;DHT22;1923;48.154;11.536;2023-11-22T02:56:04;5.20;99.90
3816;DHT22;1923;48.154;11.536;2023-11-22T02:58:34;5.10;99.90
3816;DHT22;1923;48.154;11.536;2023-11-22T03:01:02;5.00;99.90
3816;DHT22;1923;48.154;11.536;2023-11-22T03:03:30;4.80;99.90
3816;DHT22;1923;48.154;11.536;2023-11-22T03:05:58;4.80;99.90
3816;DHT22;1923;48.154;11.536;2023-11-22T03:08:26;4.90;99.90
3816;DHT22;1923;48.154;11.536;2023-11-22T03:10:54;4.80;99.90
3816;DHT22;1923;48.154;11.536;2023-11-22T03:13:23;4.70;99.90
3816;DHT22;1923;48.154;11.536;2023-11-22T03:15:52;4.80;99.90
3816;DHT22;1923;48.154;11.536;2023-11-22T03:18:20;4.80;99.90
3816;DHT22;1923;48.154;11.536;2023-11-22T03:20:49;4.60;99.90
3816;DHT22;1923;48.154;11.536;2023-11-22T03:23:21;4.70;99.90
3816;DHT22;1923;48.154;11.536;2023-11-22T03:25:49;4.60;99.90
3816;DHT22;1923;48.154;11.536;2023-11-22T03:28:17;4.50;99.90
3816;DHT22;1923;48.154;11.536;2023-11-22T03:30:45;4.70;99.90
3816;DHT22;1923;48.154;11.536;2023-11-22T03:33:14;4.70;99.90
3816;DHT22;1923;48.154;11.536;2023-11-22T03:35:42;4.70;99.90
3816;DHT22;1923;48.154;11.536;2023-11-22T03:38:10;4.60;99.90
3816;DHT22;1923;48.154;11.536;2023-11-22T03:40:38;4.50;99.90
3816;DHT22;1923;48.154;11.536;2023-11-22T03:43:07;4.60;99.90
3816;DHT22;1923;48.154;11.536;2023-11-22T03:45:37;4.70;99.90
3816;DHT22;1923;48.154;11.536;2023-11-22T03:48:05;4.80;99.90
3816;DHT22;1923;48.154;11.536;2023-11-22T03:50:34;4.90;99.90
3816;DHT22;1923;48.154;11.536;2023-11-22T03:53:03;4.90;99.90
3816;DHT22;1923;48.154;11.536;2023-11-22T03:55:31;4.90;99.90
3816;DHT22;1923;48.154;11.536;2023-11-22T03:57:59;4.80;99.90
3816;DHT22;1923;48.154;11.536;2023-11-22T04:00:27;4.90;99.90
3816;DHT22;1923;48.154;11.536;2023-11-22T04:02:55;4.90;99.90
3816;DHT22;1923;48.154;11.536;2023-11-22T04:05:26;4.90;99.90
3816;DHT22;1923;48.154;11.536;2023-11-22T04:07:55;4.90;99.90
3816;DHT22;1923;48.154;11.536;2023-11-22T04:10:24;5.00;99.90
3816;DHT22;1923;48.154;11.536;2023-11-22T04:12:52;5.00;99.90
3816;DHT22;1923;48.154;11.536;2023-11-22T04:15:20;5.10;99.90
3816;DHT22;1923;48.154;11.536;2023-11-22T04:17:48;5.00;99.90
3816;DHT22;1923;48.154;11.536;2023-11-22T04:20:17;4.90;99.90
3816;DHT22;1923;48.154;11.536;2023-11-22T04:22:45;5.00;99.90
3816;DHT22;1923;48.154;11.536;2023-11-22T04:25:15;5.00;99.90
3816;DHT22;1923;48.154;11.536;2023-11-22T04:27:43;5.10;99.90
3816;DHT22;1923;48.154;11.536;2023-11-22T04:30:12;5.10;99.90
3816;DHT22;1923;48.154;11.536;2023-11-22T04:32:41;5.10;99.90
3816;DHT22;1923;48.154;11.536;2023-11-22T04:35:10;5.10;99.90
3816;DHT22;1923;48.154;11.536;2023-11-22T04:37:38;5.10;99.90
3816;DHT22;1923;48.154;11.536;2023-11-22T04:40:07;5.00;99.90
3816;DHT22;1923;48.154;11.536;2023-11-22T04:42:36;5.20;99.90
3816;DHT22;1923;48.154;11.536;2023-11-22T04:45:05;5.10;99.90
3816;DHT22;1923;48.154;11.536;2023-11-22T04:47:33;5.20;99.90
3816;DHT22;1923;48.154;11.536;2023-11-22T04:50:02;5.20;99.90
3816;DHT22;1923;48.154;11.536;2023-11-22T04:52:32;5.20;99.90
3816;DHT22;1923;48.154;11.536;2023-11-22T04:55:00;5.10;99.90
3816;DHT22;1923;48.154;11.536;2023-11-22T04:57:28;5.00;99.90
3816;DHT22;1923;48.154;11.536;2023-11-22T04:59:58;4.90;99.90
3816;DHT22;1923;48.154;11.536;2023-11-22T05:02:27;4.90;99.90
3816;DHT22;1923;48.154;11.536;2023-11-22T05:04:55;4.70;99.90
3816;DHT22;1923;48.154;11.536;2023-11-22T05:07:24;4.90;99.90
3816;DHT22;1923;48.154;11.536;2023-11-22T05:09:51;4.80;99.90
3816;DHT22;1923;48.154;11.536;2023-11-22T05:12:21;5.00;99.90
3816;DHT22;1923;48.154;11.536;2023-11-22T05:14:49;4.90;99.90
3816;DHT22;1923;48.154;11.536;2023-11-22T05:17:19;4.90;99.90
3816;DHT22;1923;48.154;11.536;2023-11-22T05:19:47;4.90;99.90
3816;DHT22;1923;48.154;11.536;2023-11-22T05:22:15;5.00;99.90
3816;DHT22;1923;48.154;11.536;2023-11-22T05:24:43;4.90;99.90
3816;DHT22;1923;48.154;11.536;2023-11-22T05:27:11;5.00;99.90
3816;DHT22;1923;48.154;11.536;2023-11-22T05:29:39;4.70;99.90
3816;DHT22;1923;48.154;11.536;2023-11-22T05:32:19;4.90;99.90
3816;DHT22;1923;48.154;11.536;2023-11-22T05:34:47;5.00;99.90
3816;DHT22;1923;48.154;11.536;2023-11-22T05:37:15;5.00;99.90
3816;DHT22;1923;48.154;11.536;2023-11-22T05:39:43;5.00;99.90
3816;DHT22;1923;48.154;11.536;2023-11-22T05:42:12;4.90;99.90
3816;DHT22;1923;48.154;11.536;2023-11-22T05:44:40;4.90;99.90
3816;DHT22;1923;48.154;11.536;2023-11-22T05:47:08;5.00;99.90
3816;DHT22;1923;48.154;11.536;2023-11-22T05:49:38;5.00;99.90
3816;DHT22;1923;48.154;11.536;2023-11-22T05:52:06;4.90;99.90
3816;DHT22;1923;48.154;11.536;2023-11-22T05:54:34;4.70;99.90
3816;DHT22;1923;48.154;11.536;2023-11-22T05:57:03;4.60;99.90
3816;DHT22;1923;48.154;11.536;2023-11-22T05:59:32;4.70;99.90
3816;DHT22;1923;48.154;11.536;2023-11-22T06:02:00;4.50;99.90
3816;DHT22;1923;48.154;11.536;2023-11-22T06:04:28;4.70;99.90
3816;DHT22;1923;48.154;11.536;2023-11-22T06:06:59;4.70;99.90
3816;DHT22;1923;48.154;11.536;2023-11-22T06:09:27;4.80;99.90
3816;DHT22;1923;48.154;11.536;2023-11-22T06:11:55;4.90;99.90
3816;DHT22;1923;48.154;11.536;2023-11-22T06:14:23;4.90;99.90
3816;DHT22;1923;48.154;11.536;2023-11-22T06:16:51;4.90;99.90
3816;DHT22;1923;48.154;11.536;2023-11-22T06:19:19;5.00;99.90
3816;DHT22;1923;48.154;11.536;2023-11-22T06:21:47;5.00;99.90
3816;DHT22;1923;48.154;11.536;2023-11-22T06:24:16;4.90;99.90
3816;DHT22;1923;48.154;11.536;2023-11-22T06:26:44;5.00;99.90
3816;DHT22;1923;48.154;11.536;2023-11-22T06:29:13;5.00;99.90
3816;DHT22;1923;48.154;11.536;2023-11-22T06:31:42;5.00;99.90
3816;DHT22;1923;48.154;11.536;2023-11-22T06:34:10;5.00;99.90
3816;DHT22;1923;48.154;11.536;2023-11-22T06:36:39;4.90;99.90
3816;DHT22;1923;48.154;11.536;2023-11-22T06:39:07;4.80;99.90
3816;DHT22;1923;48.154;11.536;2023-11-22T06:41:38;4.80;99.90
3816;DHT22;1923;48.154;11.536;2023-11-22T06:44:06;4.70;99.90
3816;DHT22;1923;48.154;11.536;2023-11-22T06:46:34;4.70;99.90
3816;DHT22;1923;48.154;11.536;2023-11-22T06:49:02;4.80;99.90
3816;DHT22;1923;48.154;11.536;2023-11-22T06:51:30;4.80;99.90
3816;DHT22;1923;48.154;11.536;2023-11-22T06:53:58;4.80;99.90
3816;DHT22;1923;48.154;11.536;2023-11-22T06:56:28;4.80;99.90
3816;DHT22;1923;48.154;11.536;2023-11-22T06:58:58;4.90;99.90
3816;DHT22;1923;48.154;11.536;2023-11-22T07:01:26;4.90;99.90
3816;DHT22;1923;48.154;11.536;2023-11-22T07:03:54;4.90;99.90
3816;DHT22;1923;48.154;11.536;2023-11-22T07:06:23;4.90;99.90
3816;DHT22;1923;48.154;11.536;2023-11-22T07:08:53;4.90;99.90
3816;DHT22;1923;48.154;11.536;2023-11-22T07:11:24;4.80;99.90
3816;DHT22;1923;48.154;11.536;2023-11-22T07:13:53;4.80;99.90
3816;DHT22;1923;48.154;11.536;2023-11-22T07:16:22;4.80;99.90
3816;DHT22;1923;48.154;11.536;2023-11-22T07:18:51;4.80;99.90
3816;DHT22;1923;48.154;11.536;2023-11-22T07:21:19;4.80;99.90
3816;DHT22;1923;48.154;11.536;2023-11-22T07:23:48;4.90;99.90
3816;DHT22;1923;48.154;11.536;2023-11-22T07:26:19;5.00;99.90
3816;DHT22;1923;48.154;11.536;2023-11-22T07:28:47;5.00;99.90
3816;DHT22;1923;48.154;11.536;2023-11-22T07:31:15;4.90;99.90
3816;DHT22;1923;48.154;11.536;2023-11-22T07:33:46;5.00;99.90
3816;DHT22;1923;48.154;11.536;2023-11-22T07:36:14;5.00;99.90
3816;DHT22;1923;48.154;11.536;2023-11-22T07:38:42;5.00;99.90
3816;DHT22;1923;48.154;11.536;2023-11-22T07:41:11;5.10;99.90
3816;DHT22;1923;48.154;11.536;2023-11-22T07:43:39;4.90;99.90
3816;DHT22;1923;48.154;11.536;2023-11-22T07:46:08;5.00;99.90
3816;DHT22;1923;48.154;11.536;2023-11-22T07:48:40;5.10;99.90
3816;DHT22;1923;48.154;11.536;2023-11-22T07:51:10;5.00;99.90
3816;DHT22;1923;48.154;11.536;2023-11-22T07:53:38;4.90;99.90
3816;DHT22;1923;48.154;11.536;2023-11-22T07:56:07;5.10;99.90
3816;DHT22;1923;48.154;11.536;2023-11-22T07:58:36;5.20;99.90
3816;DHT22;1923;48.154;11.536;2023-11-22T08:01:05;5.10;99.90
3816;DHT22;1923;48.154;11.536;2023-11-22T08:03:40;5.00;99.90
3816;DHT22;1923;48.154;11.536;2023-11-22T08:06:15;5.00;99.90
3816;DHT22;1923;48.154;11.536;2023-11-22T08:08:44;5.00;99.90
3816;DHT22;1923;48.154;11.536;2023-11-22T08:11:13;4.90;99.90
3816;DHT22;1923;48.154;11.536;2023-11-22T08:13:42;4.90;99.90
3816;DHT22;1923;48.154;11.536;2023-11-22T08:16:12;4.80;99.90
3816;DHT22;1923;48.154;11.536;2023-11-22T08:18:41;4.80;99.90
3816;DHT22;1923;48.154;11.536;2023-11-22T08:21:11;5.00;99.90
3816;DHT22;1923;48.154;11.536;2023-11-22T08:23:40;4.90;99.90
3816;DHT22;1923;48.154;11.536;2023-11-22T08:26:08;4.90;99.90
3816;DHT22;1923;48.154;11.536;2023-11-22T08:28:39;4.90;99.90
3816;DHT22;1923;48.154;11.536;2023-11-22T08:31:07;5.00;99.90
3816;DHT22;1923;48.154;11.536;2023-11-22T08:33:37;5.00;99.90
3816;DHT22;1923;48.154;11.536;2023-11-22T08:36:06;5.00;99.90
3816;DHT22;1923;48.154;11.536;2023-11-22T08:38:35;4.90;99.90
3816;DHT22;1923;48.154;11.536;2023-11-22T08:41:05;4.70;99.90
3816;DHT22;1923;48.154;11.536;2023-11-22T08:43:33;4.70;99.90
3816;DHT22;1923;48.154;11.536;2023-11-22T08:46:02;4.70;99.90
3816;DHT22;1923;48.154;11.536;2023-11-22T08:48:41;4.70;99.90
3816;DHT22;1923;48.154;11.536;2023-11-22T08:51:10;4.70;99.90
3816;DHT22;1923;48.154;11.536;2023-11-22T08:53:38;4.70;99.90
3816;DHT22;1923;48.154;11.536;2023-11-22T08:56:08;4.70;99.90
3816;DHT22;1923;48.154;11.536;2023-11-22T08:58:37;4.70;99.90
3816;DHT22;1923;48.154;11.536;2023-11-22T09:01:05;4.70;99.90
3816;DHT22;1923;48.154;11.536;2023-11-22T09:03:34;4.80;99.90
3816;DHT22;1923;48.154;11.536;2023-11-22T09:06:03;4.80;99.90
3816;DHT22;1923;48.154;11.536;2023-11-22T09:08:33;4.80;99.90
3816;DHT22;1923;48.154;11.536;2023-11-22T09:11:02;4.70;99.90
3816;DHT22;1923;48.154;11.536;2023-11-22T09:13:35;4.80;99.90
3816;DHT22;1923;48.154;11.536;2023-11-22T09:16:03;4.70;99.90
3816;DHT22;1923;48.154;11.536;2023-11-22T09:18:32;4.70;99.90
3816;DHT22;1923;48.154;11.536;2023-11-22T09:21:01;4.70;99.90
3816;DHT22;1923;48.154;11.536;2023-11-22T09:23:29;4.80;99.90
3816;DHT22;1923;48.154;11.536;2023-11-22T09:25:57;4.90;99.90
3816;DHT22;1923;48.154;11.536;2023-11-22T09:28:27;4.90;99.90
3816;DHT22;1923;48.154;11.536;2023-11-22T09:30:55;5.00;99.90
3816;DHT22;1923;48.154;11.536;2023-11-22T09:33:28;5.10;99.90
3816;DHT22;1923;48.154;11.536;2023-11-22T09:35:56;5.10;99.90
3816;DHT22;1923;48.154;11.536;2023-11-22T09:38:24;5.30;99.90
3816;DHT22;1923;48.154;11.536;2023-11-22T09:40:53;5.30;99.90
3816;DHT22;1923;48.154;11.536;2023-11-22T09:43:21;5.30;99.90
3816;DHT22;1923;48.154;11.536;2023-11-22T09:45:52;5.20;99.90
3816;DHT22;1923;48.154;11.536;2023-11-22T09:48:26;5.20;99.90
3816;DHT22;1923;48.154;11.536;2023-11-22T09:51:01;5.20;99.90
3816;DHT22;1923;48.154;11.536;2023-11-22T09:53:32;5.20;99.90
3816;DHT22;1923;48.154;11.536;2023-11-22T09:56:02;5.30;99.90
3816;DHT22;1923;48.154;11.536;2023-11-22T09:58:30;5.30;99.90
3816;DHT22;1923;48.154;11.536;2023-11-22T10:01:00;5.30;99.90
3816;DHT22;1923;48.154;11.536;2023-11-22T10:03:29;5.20;99.90
3816;DHT22;1923;48.154;11.536;2023-11-22T10:05:58;5.30;99.90
3816;DHT22;1923;48.154;11.536;2023-11-22T10:08:27;5.20;99.90
3816;DHT22;1923;48.154;11.536;2023-11-22T10:10:57;5.00;99.90
3816;DHT22;1923;48.154;11.536;2023-11-22T10:13:26;5.10;99.90
3816;DHT22;1923;48.154;11.536;2023-11-22T10:15:54;5.00;99.90
3816;DHT22;1923;48.154;11.536;2023-11-22T10:18:23;5.10;99.90
3816;DHT22;1923;48.154;11.536;2023-11-22T10:20:53;5.10;99.90
3816;DHT22;1923;48.154;11.536;2023-11-22T10:23:21;5.10;99.90
3816;DHT22;1923;48.154;11.536;2023-11-22T10:25:55;5.20;99.90
3816;DHT22;1923;48.154;11.536;2023-11-22T10:28:26;5.30;99.90
3816;DHT22;1923;48.154;11.536;2023-11-22T10:30:54;5.20;99.90
3816;DHT22;1923;48.154;11.536;2023-11-22T10:33:24;5.30;99.90
3816;DHT22;1923;48.154;11.536;2023-11-22T10:35:56;5.30;99.90
3816;DHT22;1923;48.154;11.536;2023-11-22T10:38:25;5.40;99.90
3816;DHT22;1923;48.154;11.536;2023-11-22T10:40:54;5.60;99.90
3816;DHT22;1923;48.154;11.536;2023-11-22T10:43:26;5.60;99.90
3816;DHT22;1923;48.154;11.536;2023-11-22T10:45:57;5.50;99.90
3816;DHT22;1923;48.154;11.536;2023-11-22T10:48:26;5.40;99.90
3816;DHT22;1923;48.154;11.536;2023-11-22T10:51:00;5.50;99.90
3816;DHT22;1923;48.154;11.536;2023-11-22T10:53:32;5.60;99.90
3816;DHT22;1923;48.154;11.536;2023-11-22T10:56:05;5.70;99.90
3816;DHT22;1923;48.154;11.536;2023-11-22T10:58:46;5.80;99.90
3816;DHT22;1923;48.154;11.536;2023-11-22T11:01:15;5.90;99.90
3816;DHT22;1923;48.154;11.536;2023-11-22T11:03:47;5.80;99.90
3816;DHT22;1923;48.154;11.536;2023-11-22T11:06:24;5.90;99.90
3816;DHT22;1923;48.154;11.536;2023-11-22T11:08:56;6.00;99.90
3816;DHT22;1923;48.154;11.536;2023-11-22T11:11:28;6.00;99.90
3816;DHT22;1923;48.154;11.536;2023-11-22T11:13:57;6.10;99.90
3816;DHT22;1923;48.154;11.536;2023-11-22T11:16:26;6.00;99.90
3816;DHT22;1923;48.154;11.536;2023-11-22T11:18:55;6.10;99.90
3816;DHT22;1923;48.154;11.536;2023-11-22T11:21:25;6.10;99.90
3816;DHT22;1923;48.154;11.536;2023-11-22T11:23:55;6.20;99.90
3816;DHT22;1923;48.154;11.536;2023-11-22T11:26:32;6.00;99.90
3816;DHT22;1923;48.154;11.536;2023-11-22T11:29:02;6.00;99.90
3816;DHT22;1923;48.154;11.536;2023-11-22T11:31:31;6.00;99.90
3816;DHT22;1923;48.154;11.536;2023-11-22T11:34:05;6.10;99.90
3816;DHT22;1923;48.154;11.536;2023-11-22T11:36:37;6.30;99.90
3816;DHT22;1923;48.154;11.536;2023-11-22T11:39:06;6.20;99.90
3816;DHT22;1923;48.154;11.536;2023-11-22T11:41:38;6.00;99.90
3816;DHT22;1923;48.154;11.536;2023-11-22T11:44:07;6.00;99.90
3816;DHT22;1923;48.154;11.536;2023-11-22T11:46:37;6.10;99.90
3816;DHT22;1923;48.154;11.536;2023-11-22T11:49:06;6.10;99.90
3816;DHT22;1923;48.154;11.536;2023-11-22T11:51:36;5.80;99.90
3816;DHT22;1923;48.154;11.536;2023-11-22T11:54:05;6.00;99.90
3816;DHT22;1923;48.154;11.536;2023-11-22T11:56:34;6.00;99.90
3816;DHT22;1923;48.154;11.536;2023-11-22T11:59:02;5.90;99.90
3816;DHT22;1923;48.154;11.536;2023-11-22T12:01:31;5.80;99.90
3816;DHT22;1923;48.154;11.536;2023-11-22T12:04:00;5.80;99.90
3816;DHT22;1923;48.154;11.536;2023-11-22T12:06:29;5.80;99.90
3816;DHT22;1923;48.154;11.536;2023-11-22T12:09:01;5.80;99.90
3816;DHT22;1923;48.154;11.536;2023-11-22T12:11:30;5.80;99.90
3816;DHT22;1923;48.154;11.536;2023-11-22T12:13:58;5.70;99.90
3816;DHT22;1923;48.154;11.536;2023-11-22T12:16:26;5.80;99.90
3816;DHT22;1923;48.154;11.536;2023-11-22T12:18:55;5.80;99.90
3816;DHT22;1923;48.154;11.536;2023-11-22T12:21:25;5.60;99.90
3816;DHT22;1923;48.154;11.536;2023-11-22T12:23:55;5.50;99.90
3816;DHT22;1923;48.154;11.536;2023-11-22T12:26:24;5.50;99.90
3816;DHT22;1923;48.154;11.536;2023-11-22T12:28:52;5.60;99.90
3816;DHT22;1923;48.154;11.536;2023-11-22T12:31:31;5.60;99.90
3816;DHT22;1923;48.154;11.536;2023-11-22T12:34:03;5.60;99.90
3816;DHT22;1923;48.154;11.536;2023-11-22T12:36:33;5.70;99.90
3816;DHT22;1923;48.154;11.536;2023-11-22T12:39:07;5.60;99.90
3816;DHT22;1923;48.154;11.536;2023-11-22T12:41:47;5.60;99.90
3816;DHT22;1923;48.154;11.536;2023-11-22T12:44:47;5.70;99.90
3816;DHT22;1923;48.154;11.536;2023-11-22T12:47:15;5.70;99.90
3816;DHT22;1923;48.154;11.536;2023-11-22T12:49:59;5.70;99.90
3816;DHT22;1923;48.154;11.536;2023-11-22T12:52:27;5.60;99.90
3816;DHT22;1923;48.154;11.536;2023-11-22T12:54:55;5.70;99.90
3816;DHT22;1923;48.154;11.536;2023-11-22T12:57:24;5.70;99.90
3816;DHT22;1923;48.154;11.536;2023-11-22T12:59:52;5.70;99.90
3816;DHT22;1923;48.154;11.536;2023-11-22T13:02:20;5.70;99.90
3816;DHT22;1923;48.154;11.536;2023-11-22T13:04:49;5.70;99.90
3816;DHT22;1923;48.154;11.536;2023-11-22T13:07:17;5.80;99.90
3816;DHT22;1923;48.154;11.536;2023-11-22T13:09:46;5.80;99.90
3816;DHT22;1923;48.154;11.536;2023-11-22T13:12:14;5.90;99.90
3816;DHT22;1923;48.154;11.536;2023-11-22T13:14:47;5.70;99.90
3816;DHT22;1923;48.154;11.536;2023-11-22T13:17:17;5.70;99.90
3816;DHT22;1923;48.154;11.536;2023-11-22T13:19:45;5.80;99.90
3816;DHT22;1923;48.154;11.536;2023-11-22T13:22:16;5.70;99.90
3816;DHT22;1923;48.154;11.536;2023-11-22T13:24:46;5.70;99.90
3816;DHT22;1923;48.154;11.536;2023-11-22T13:27:14;5.70;99.90
3816;DHT22;1923;48.154;11.536;2023-11-22T13:29:42;5.90;99.90
3816;DHT22;1923;48.154;11.536;2023-11-22T13:32:12;5.70;99.90
3816;DHT22;1923;48.154;11.536;2023-11-22T13:34:40;5.80;99.90
3816;DHT22;1923;48.154;11.536;2023-11-22T13:37:08;5.80;99.90
3816;DHT22;1923;48.154;11.536;2023-11-22T13:39:36;5.70;99.90
3816;DHT22;1923;48.154;11.536;2023-11-22T13:42:05;5.60;99.90
3816;DHT22;1923;48.154;11.536;2023-11-22T13:44:33;5.50;99.90
3816;DHT22;1923;48.154;11.536;2023-11-22T13:47:01;5.40;99.90
3816;DHT22;1923;48.154;11.536;2023-11-22T13:49:32;5.30;99.90
3816;DHT22;1923;48.154;11.536;2023-11-22T13:52:00;5.30;99.90
3816;DHT22;1923;48.154;11.536;2023-11-22T13:54:28;5.30;99.90
3816;DHT22;1923;48.154;11.536;2023-11-22T13:56:58;5.30;99.90
3816;DHT22;1923;48.154;11.536;2023-11-22T13:59:26;5.40;99.90
3816;DHT22;1923;48.154;11.536;2023-11-22T14:01:55;5.30;99.90
3816;DHT22;1923;48.154;11.536;2023-11-22T14:04:23;5.30;99.90
3816;DHT22;1923;48.154;11.536;2023-11-22T14:06:52;5.30;99.90
3816;DHT22;1923;48.154;11.536;2023-11-22T14:09:22;5.40;99.90
3816;DHT22;1923;48.154;11.536;2023-11-22T14:11:50;5.40;99.90
3816;DHT22;1923;48.154;11.536;2023-11-22T14:14:20;5.20;99.90
3816;DHT22;1923;48.154;11.536;2023-11-22T14:16:48;5.20;99.90
3816;DHT22;1923;48.154;11.536;2023-11-22T14:19:17;5.30;99.90
3816;DHT22;1923;48.154;11.536;2023-11-22T14:21:45;5.20;99.90
3816;DHT22;1923;48.154;11.536;2023-11-22T14:24:15;5.20;99.90
3816;DHT22;1923;48.154;11.536;2023-11-22T14:26:44;5.20;99.90
3816;DHT22;1923;48.154;11.536;2023-11-22T14:29:15;5.20;99.90
3816;DHT22;1923;48.154;11.536;2023-11-22T14:31:44;5.00;99.90
3816;DHT22;1923;48.154;11.536;2023-11-22T14:34:12;5.00;99.90
3816;DHT22;1923;48.154;11.536;2023-11-22T14:36:40;5.20;99.90
3816;DHT22;1923;48.154;11.536;2023-11-22T14:39:08;5.10;99.90
3816;DHT22;1923;48.154;11.536;2023-11-22T14:41:40;5.10;99.90
3816;DHT22;1923;48.154;11.536;2023-11-22T14:44:08;5.30;99.90
3816;DHT22;1923;48.154;11.536;2023-11-22T14:46:36;5.40;99.90
3816;DHT22;1923;48.154;11.536;2023-11-22T14:49:05;5.50;99.90
3816;DHT22;1923;48.154;11.536;2023-11-22T14:51:35;5.50;99.90
3816;DHT22;1923;48.154;11.536;2023-11-22T14:54:03;5.50;99.90
3816;DHT22;1923;48.154;11.536;2023-11-22T14:56:31;5.50;99.90
3816;DHT22;1923;48.154;11.536;2023-11-22T14:59:00;5.60;99.90
3816;DHT22;1923;48.154;11.536;2023-11-22T15:01:28;5.60;99.90
3816;DHT22;1923;48.154;11.536;2023-11-22T15:03:56;5.50;99.90
3816;DHT22;1923;48.154;11.536;2023-11-22T15:06:25;5.30;99.90
3816;DHT22;1923;48.154;11.536;2023-11-22T15:08:53;5.40;99.90
3816;DHT22;1923;48.154;11.536;2023-11-22T15:11:21;5.40;99.90
3816;DHT22;1923;48.154;11.536;2023-11-22T15:13:49;5.20;99.90
3816;DHT22;1923;48.154;11.536;2023-11-22T15:16:19;5.20;99.90
3816;DHT22;1923;48.154;11.536;2023-11-22T15:18:47;5.20;99.90
3816;DHT22;1923;48.154;11.536;2023-11-22T15:21:15;5.20;99.90
3816;DHT22;1923;48.154;11.536;2023-11-22T15:23:44;5.20;99.90
3816;DHT22;1923;48.154;11.536;2023-11-22T15:26:12;5.10;99.90
3816;DHT22;1923;48.154;11.536;2023-11-22T15:28:40;4.90;99.90
3816;DHT22;1923;48.154;11.536;2023-11-22T15:31:09;4.90;99.90
3816;DHT22;1923;48.154;11.536;2023-11-22T15:33:38;5.00;99.90
3816;DHT22;1923;48.154;11.536;2023-11-22T15:36:06;5.00;99.90
3816;DHT22;1923;48.154;11.536;2023-11-22T15:38:35;5.00;99.90
3816;DHT22;1923;48.154;11.536;2023-11-22T15:41:02;5.00;99.90
3816;DHT22;1923;48.154;11.536;2023-11-22T15:43:41;4.90;99.90
3816;DHT22;1923;48.154;11.536;2023-11-22T15:46:11;4.90;99.90
3816;DHT22;1923;48.154;11.536;2023-11-22T15:48:41;4.90;99.90
3816;DHT22;1923;48.154;11.536;2023-11-22T15:51:11;4.90;99.90
3816;DHT22;1923;48.154;11.536;2023-11-22T15:53:39;4.90;99.90
3816;DHT22;1923;48.154;11.536;2023-11-22T15:56:08;4.90;99.90
3816;DHT22;1923;48.154;11.536;2023-11-22T15:58:41;4.90;99.90
3816;DHT22;1923;48.154;11.536;2023-11-22T16:01:10;5.00;99.90
3816;DHT22;1923;48.154;11.536;2023-11-22T16:03:38;5.10;99.90
3816;DHT22;1923;48.154;11.536;2023-11-22T16:06:08;5.10;99.90
3816;DHT22;1923;48.154;11.536;2023-11-22T16:08:36;5.00;99.90
3816;DHT22;1923;48.154;11.536;2023-11-22T16:11:04;5.00;99.90
3816;DHT22;1923;48.154;11.536;2023-11-22T16:13:36;5.00;99.90
3816;DHT22;1923;48.154;11.536;2023-11-22T16:16:04;5.00;99.90